Vintondale, Pennsylvania
Current Conditions -  °F | °C
As of 2:54 PM on Tuesday 21 Oct 2014 (Local Time) from KJST Reporting Station
Broken Clouds Broken Clouds  
Wind Chill: 50°   Ceiling: 1900
Heat Index: 50°   Visibility: 10mi
Dew Point: 43°   Wind: 12mph
Humidity: 77%   Direction: 310°NW
Pressure: 29.84"   Gusts: 17mph
Location:  40.48°N, 78.92°W
Report Text: KJST 211854Z AUTO 31010G15KT 10SM BKN019 BKN023 BKN080 10/06 A2984 RMK AO2 RAE25 SLP107 P0001 T01000061
Loading
Personal Weather Stations






























Interactive Weather Map
Tropical Storm Tracking
New forecast layout! Learn more

10-Day Weather Forecast

Advertisements
Track Severe Weather on mobile